sensor_id;sensor_type;location;lat;lon;timestamp;temperature;humidity
70421;SHT31;57848;51.938;15.520;2022-10-17T00:01:54;16.20;90.65
70421;SHT31;57848;51.938;15.520;2022-10-17T00:04:19;16.18;90.71
70421;SHT31;57848;51.938;15.520;2022-10-17T00:06:44;16.18;90.96
70421;SHT31;57848;51.938;15.520;2022-10-17T00:09:10;16.19;90.93
70421;SHT31;57848;51.938;15.520;2022-10-17T00:11:35;16.12;91.11
70421;SHT31;57848;51.938;15.520;2022-10-17T00:14:01;16.09;91.20
70421;SHT31;57848;51.938;15.520;2022-10-17T00:16:32;16.02;91.42
70421;SHT31;57848;51.938;15.520;2022-10-17T00:18:59;15.99;91.50
70421;SHT31;57848;51.938;15.520;2022-10-17T00:21:25;15.97;91.72
70421;SHT31;57848;51.938;15.520;2022-10-17T00:23:52;15.95;91.78
70421;SHT31;57848;51.938;15.520;2022-10-17T00:26:18;15.88;91.84
70421;SHT31;57848;51.938;15.520;2022-10-17T00:28:46;15.75;92.13
70421;SHT31;57848;51.938;15.520;2022-10-17T00:31:12;15.77;92.21
70421;SHT31;57848;51.938;15.520;2022-10-17T00:33:37;15.77;91.99
70421;SHT31;57848;51.938;15.520;2022-10-17T00:36:18;15.72;92.06
70421;SHT31;57848;51.938;15.520;2022-10-17T00:38:45;15.65;92.35
70421;SHT31;57848;51.938;15.520;2022-10-17T00:41:13;15.65;92.31
70421;SHT31;57848;51.938;15.520;2022-10-17T00:46:19;15.50;92.65
70421;SHT31;57848;51.938;15.520;2022-10-17T00:48:45;15.57;92.64
70421;SHT31;57848;51.938;15.520;2022-10-17T00:51:11;15.55;92.72
70421;SHT31;57848;51.938;15.520;2022-10-17T00:53:38;15.54;92.69
70421;SHT31;57848;51.938;15.520;2022-10-17T00:56:03;15.54;92.69
70421;SHT31;57848;51.938;15.520;2022-10-17T00:58:29;15.55;92.72
70421;SHT31;57848;51.938;15.520;2022-10-17T01:00:54;15.57;92.67
70421;SHT31;57848;51.938;15.520;2022-10-17T01:03:20;15.58;92.62
70421;SHT31;57848;51.938;15.520;2022-10-17T01:05:45;15.62;92.62
70421;SHT31;57848;51.938;15.520;2022-10-17T01:08:11;15.65;92.52
70421;SHT31;57848;51.938;15.520;2022-10-17T01:10:48;15.65;92.60
70421;SHT31;57848;51.938;15.520;2022-10-17T01:13:24;15.65;92.47
70421;SHT31;57848;51.938;15.520;2022-10-17T01:16:05;15.62;92.47
70421;SHT31;57848;51.938;15.520;2022-10-17T01:18:55;15.65;92.43
70421;SHT31;57848;51.938;15.520;2022-10-17T01:21:30;15.68;92.34
70421;SHT31;57848;51.938;15.520;2022-10-17T01:24:12;15.65;92.49
70421;SHT31;57848;51.938;15.520;2022-10-17T01:29:21;15.57;92.67
70421;SHT31;57848;51.938;15.520;2022-10-17T01:31:54;15.54;92.63
70421;SHT31;57848;51.938;15.520;2022-10-17T01:34:31;15.51;92.76
70421;SHT31;57848;51.938;15.520;2022-10-17T01:37:05;15.54;92.61
70421;SHT31;57848;51.938;15.520;2022-10-17T01:39:50;15.55;92.54
70421;SHT31;57848;51.938;15.520;2022-10-17T01:44:58;15.57;92.64
70421;SHT31;57848;51.938;15.520;2022-10-17T01:47:27;15.60;92.53
70421;SHT31;57848;51.938;15.520;2022-10-17T01:49:57;15.61;92.40
70421;SHT31;57848;51.938;15.520;2022-10-17T01:52:28;15.64;92.46
70421;SHT31;57848;51.938;15.520;2022-10-17T01:54:57;15.68;92.45
70421;SHT31;57848;51.938;15.520;2022-10-17T01:57:31;15.57;92.54
70421;SHT31;57848;51.938;15.520;2022-10-17T01:59:59;15.55;92.65
70421;SHT31;57848;51.938;15.520;2022-10-17T02:02:25;15.58;92.63
70421;SHT31;57848;51.938;15.520;2022-10-17T02:04:51;15.48;92.91
70421;SHT31;57848;51.938;15.520;2022-10-17T02:07:17;15.41;93.05
70421;SHT31;57848;51.938;15.520;2022-10-17T02:09:43;15.33;93.32
70421;SHT31;57848;51.938;15.520;2022-10-17T02:12:26;15.29;93.40
70421;SHT31;57848;51.938;15.520;2022-10-17T02:15:19;15.31;93.28
70421;SHT31;57848;51.938;15.520;2022-10-17T02:18:15;15.31;93.39
70421;SHT31;57848;51.938;15.520;2022-10-17T02:20:56;15.29;93.47
70421;SHT31;57848;51.938;15.520;2022-10-17T02:23:51;15.23;93.49
70421;SHT31;57848;51.938;15.520;2022-10-17T02:26:29;15.24;93.50
70421;SHT31;57848;51.938;15.520;2022-10-17T02:29:08;15.20;93.58
70421;SHT31;57848;51.938;15.520;2022-10-17T02:31:50;15.17;93.75
70421;SHT31;57848;51.938;15.520;2022-10-17T02:34:31;15.13;93.88
70421;SHT31;57848;51.938;15.520;2022-10-17T02:37:00;15.11;93.89
70421;SHT31;57848;51.938;15.520;2022-10-17T02:39:27;15.10;93.96
70421;SHT31;57848;51.938;15.520;2022-10-17T02:41:57;15.06;94.06
70421;SHT31;57848;51.938;15.520;2022-10-17T02:44:23;15.04;94.18
70421;SHT31;57848;51.938;15.520;2022-10-17T02:47:04;15.04;94.22
70421;SHT31;57848;51.938;15.520;2022-10-17T02:49:36;15.06;94.15
70421;SHT31;57848;51.938;15.520;2022-10-17T02:52:22;15.06;94.23
70421;SHT31;57848;51.938;15.520;2022-10-17T02:54:55;15.13;93.96
70421;SHT31;57848;51.938;15.520;2022-10-17T02:57:39;15.09;94.17
70421;SHT31;57848;51.938;15.520;2022-10-17T03:00:08;15.04;94.12
70421;SHT31;57848;51.938;15.520;2022-10-17T03:05:09;15.03;93.95
70421;SHT31;57848;51.938;15.520;2022-10-17T03:07:36;14.99;94.12
70421;SHT31;57848;51.938;15.520;2022-10-17T03:10:02;15.06;93.85
70421;SHT31;57848;51.938;15.520;2022-10-17T03:12:28;15.06;93.96
70421;SHT31;57848;51.938;15.520;2022-10-17T03:14:53;15.03;93.82
70421;SHT31;57848;51.938;15.520;2022-10-17T03:17:19;15.00;93.85
70421;SHT31;57848;51.938;15.520;2022-10-17T03:19:44;15.02;93.79
70421;SHT31;57848;51.938;15.520;2022-10-17T03:22:09;15.04;93.68
70421;SHT31;57848;51.938;15.520;2022-10-17T03:24:36;15.04;93.73
70421;SHT31;57848;51.938;15.520;2022-10-17T03:27:02;14.90;93.92
70421;SHT31;57848;51.938;15.520;2022-10-17T03:29:27;14.98;93.88
70421;SHT31;57848;51.938;15.520;2022-10-17T03:31:53;14.86;94.13
70421;SHT31;57848;51.938;15.520;2022-10-17T03:34:18;14.82;94.10
70421;SHT31;57848;51.938;15.520;2022-10-17T03:36:44;14.80;94.18
70421;SHT31;57848;51.938;15.520;2022-10-17T03:39:10;14.79;94.24
70421;SHT31;57848;51.938;15.520;2022-10-17T03:41:36;14.75;94.33
70421;SHT31;57848;51.938;15.520;2022-10-17T03:44:01;14.75;94.29
70421;SHT31;57848;51.938;15.520;2022-10-17T03:46:27;14.75;94.25
70421;SHT31;57848;51.938;15.520;2022-10-17T03:48:54;14.78;94.19
70421;SHT31;57848;51.938;15.520;2022-10-17T03:51:19;14.73;94.27
70421;SHT31;57848;51.938;15.520;2022-10-17T03:53:50;14.72;94.17
70421;SHT31;57848;51.938;15.520;2022-10-17T03:56:18;14.71;94.30
70421;SHT31;57848;51.938;15.520;2022-10-17T03:58:49;14.72;94.32
70421;SHT31;57848;51.938;15.520;2022-10-17T04:01:17;14.71;94.10
70421;SHT31;57848;51.938;15.520;2022-10-17T04:03:48;14.65;94.24
70421;SHT31;57848;51.938;15.520;2022-10-17T04:06:13;14.67;94.30
70421;SHT31;57848;51.938;15.520;2022-10-17T04:08:41;14.59;94.41
70421;SHT31;57848;51.938;15.520;2022-10-17T04:11:17;14.58;94.52
70421;SHT31;57848;51.938;15.520;2022-10-17T04:13:43;14.54;94.53
70421;SHT31;57848;51.938;15.520;2022-10-17T04:16:14;14.54;94.51
70421;SHT31;57848;51.938;15.520;2022-10-17T04:18:52;14.49;94.62
70421;SHT31;57848;51.938;15.520;2022-10-17T04:21:18;14.46;94.66
70421;SHT31;57848;51.938;15.520;2022-10-17T04:23:43;14.54;94.62
70421;SHT31;57848;51.938;15.520;2022-10-17T04:26:21;14.45;94.63
70421;SHT31;57848;51.938;15.520;2022-10-17T04:28:46;14.48;94.63
70421;SHT31;57848;51.938;15.520;2022-10-17T04:31:13;14.42;94.60
70421;SHT31;57848;51.938;15.520;2022-10-17T04:33:58;14.34;94.91
70421;SHT31;57848;51.938;15.520;2022-10-17T04:36:24;14.37;94.77
70421;SHT31;57848;51.938;15.520;2022-10-17T04:38:49;14.30;95.00
70421;SHT31;57848;51.938;15.520;2022-10-17T04:41:16;14.30;94.82
70421;SHT31;57848;51.938;15.520;2022-10-17T04:43:42;14.22;95.04
70421;SHT31;57848;51.938;15.520;2022-10-17T04:46:10;14.27;95.12
70421;SHT31;57848;51.938;15.520;2022-10-17T04:48:37;14.24;95.00
70421;SHT31;57848;51.938;15.520;2022-10-17T04:51:09;14.22;95.04
70421;SHT31;57848;51.938;15.520;2022-10-17T04:53:42;14.20;94.99
70421;SHT31;57848;51.938;15.520;2022-10-17T04:56:14;14.22;94.87
70421;SHT31;57848;51.938;15.520;2022-10-17T04:58:40;14.21;94.82
70421;SHT31;57848;51.938;15.520;2022-10-17T05:01:08;14.17;94.83
70421;SHT31;57848;51.938;15.520;2022-10-17T05:03:35;14.20;94.69
70421;SHT31;57848;51.938;15.520;2022-10-17T05:06:14;14.18;94.72
70421;SHT31;57848;51.938;15.520;2022-10-17T05:08:43;14.21;94.78
70421;SHT31;57848;51.938;15.520;2022-10-17T05:11:22;14.20;94.78
70421;SHT31;57848;51.938;15.520;2022-10-17T05:13:55;14.22;94.68
70421;SHT31;57848;51.938;15.520;2022-10-17T05:16:22;14.18;94.81
70421;SHT31;57848;51.938;15.520;2022-10-17T05:18:53;14.14;94.99
70421;SHT31;57848;51.938;15.520;2022-10-17T05:21:20;14.17;94.83
70421;SHT31;57848;51.938;15.520;2022-10-17T05:23:46;14.10;94.89
70421;SHT31;57848;51.938;15.520;2022-10-17T05:26:12;14.16;94.86
70421;SHT31;57848;51.938;15.520;2022-10-17T05:28:38;14.16;94.86
70421;SHT31;57848;51.938;15.520;2022-10-17T05:31:05;14.11;95.01
70421;SHT31;57848;51.938;15.520;2022-10-17T05:33:30;14.07;95.05
70421;SHT31;57848;51.938;15.520;2022-10-17T05:35:57;14.04;95.17
70421;SHT31;57848;51.938;15.520;2022-10-17T05:38:22;14.13;95.09
70421;SHT31;57848;51.938;15.520;2022-10-17T05:40:48;14.10;95.01
70421;SHT31;57848;51.938;15.520;2022-10-17T05:43:14;14.03;95.05
70421;SHT31;57848;51.938;15.520;2022-10-17T05:45:40;14.09;95.00
70421;SHT31;57848;51.938;15.520;2022-10-17T05:48:10;14.16;94.78
70421;SHT31;57848;51.938;15.520;2022-10-17T05:50:35;14.18;94.68
70421;SHT31;57848;51.938;15.520;2022-10-17T05:53:06;14.18;94.53
70421;SHT31;57848;51.938;15.520;2022-10-17T05:55:36;14.18;94.54
70421;SHT31;57848;51.938;15.520;2022-10-17T05:58:02;14.14;94.43
70421;SHT31;57848;51.938;15.520;2022-10-17T06:00:33;14.11;94.42
70421;SHT31;57848;51.938;15.520;2022-10-17T06:02:58;14.09;94.39
70421;SHT31;57848;51.938;15.520;2022-10-17T06:05:24;14.04;94.49
70421;SHT31;57848;51.938;15.520;2022-10-17T06:07:49;14.04;94.46
70421;SHT31;57848;51.938;15.520;2022-10-17T06:10:17;14.04;94.45
70421;SHT31;57848;51.938;15.520;2022-10-17T06:12:43;14.07;94.32
70421;SHT31;57848;51.938;15.520;2022-10-17T06:15:10;14.01;94.41
70421;SHT31;57848;51.938;15.520;2022-10-17T06:17:37;14.06;94.38
70421;SHT31;57848;51.938;15.520;2022-10-17T06:20:03;14.11;94.27
70421;SHT31;57848;51.938;15.520;2022-10-17T06:22:28;14.13;94.15
70421;SHT31;57848;51.938;15.520;2022-10-17T06:24:54;14.16;94.05
70421;SHT31;57848;51.938;15.520;2022-10-17T06:27:21;14.24;93.85
70421;SHT31;57848;51.938;15.520;2022-10-17T06:29:46;14.20;93.92
70421;SHT31;57848;51.938;15.520;2022-10-17T06:32:12;14.30;93.79
70421;SHT31;57848;51.938;15.520;2022-10-17T06:34:39;14.31;93.79
70421;SHT31;57848;51.938;15.520;2022-10-17T06:37:04;14.38;93.56
70421;SHT31;57848;51.938;15.520;2022-10-17T06:39:30;14.49;93.35
70421;SHT31;57848;51.938;15.520;2022-10-17T06:42:19;14.55;93.17
70421;SHT31;57848;51.938;15.520;2022-10-17T06:45:01;14.57;92.97
70421;SHT31;57848;51.938;15.520;2022-10-17T06:47:45;14.69;92.64
70421;SHT31;57848;51.938;15.520;2022-10-17T06:50:26;14.75;92.37
70421;SHT31;57848;51.938;15.520;2022-10-17T06:53:11;14.83;92.21
70421;SHT31;57848;51.938;15.520;2022-10-17T06:55:51;14.93;91.97
70421;SHT31;57848;51.938;15.520;2022-10-17T06:58:53;14.96;91.57
70421;SHT31;57848;51.938;15.520;2022-10-17T07:01:32;15.00;91.42
70421;SHT31;57848;51.938;15.520;2022-10-17T07:03:59;15.14;91.18
70421;SHT31;57848;51.938;15.520;2022-10-17T07:06:25;15.10;91.14
70421;SHT31;57848;51.938;15.520;2022-10-17T07:08:52;15.20;90.92
70421;SHT31;57848;51.938;15.520;2022-10-17T07:11:20;15.13;90.82
70421;SHT31;57848;51.938;15.520;2022-10-17T07:13:48;15.19;90.91
70421;SHT31;57848;51.938;15.520;2022-10-17T07:16:15;15.11;90.98
70421;SHT31;57848;51.938;15.520;2022-10-17T07:18:42;15.17;90.63
70421;SHT31;57848;51.938;15.520;2022-10-17T07:21:08;15.19;90.62
70421;SHT31;57848;51.938;15.520;2022-10-17T07:23:37;15.13;90.44
70421;SHT31;57848;51.938;15.520;2022-10-17T07:26:08;15.20;90.53
70421;SHT31;57848;51.938;15.520;2022-10-17T07:28:38;15.22;90.40
70421;SHT31;57848;51.938;15.520;2022-10-17T07:31:15;15.26;90.31
70421;SHT31;57848;51.938;15.520;2022-10-17T07:33:42;15.36;89.76
70421;SHT31;57848;51.938;15.520;2022-10-17T07:36:08;15.41;89.66
70421;SHT31;57848;51.938;15.520;2022-10-17T07:38:35;15.46;89.40
70421;SHT31;57848;51.938;15.520;2022-10-17T07:41:01;15.50;89.10
70421;SHT31;57848;51.938;15.520;2022-10-17T07:43:27;15.57;88.79
70421;SHT31;57848;51.938;15.520;2022-10-17T07:45:53;15.68;88.76
70421;SHT31;57848;51.938;15.520;2022-10-17T07:48:20;15.70;88.66
70421;SHT31;57848;51.938;15.520;2022-10-17T07:50:46;15.70;88.77
70421;SHT31;57848;51.938;15.520;2022-10-17T07:53:11;15.78;88.60
70421;SHT31;57848;51.938;15.520;2022-10-17T07:55:37;15.89;88.18
70421;SHT31;57848;51.938;15.520;2022-10-17T07:58:02;15.95;88.12
70421;SHT31;57848;51.938;15.520;2022-10-17T08:00:28;15.99;87.81
70421;SHT31;57848;51.938;15.520;2022-10-17T08:02:53;16.08;87.59
70421;SHT31;57848;51.938;15.520;2022-10-17T08:05:18;16.10;87.44
70421;SHT31;57848;51.938;15.520;2022-10-17T08:07:44;16.13;87.50
70421;SHT31;57848;51.938;15.520;2022-10-17T08:10:13;16.15;87.25
70421;SHT31;57848;51.938;15.520;2022-10-17T08:12:39;16.28;86.94
70421;SHT31;57848;51.938;15.520;2022-10-17T08:15:05;16.43;86.68
70421;SHT31;57848;51.938;15.520;2022-10-17T08:17:33;16.53;86.30
70421;SHT31;57848;51.938;15.520;2022-10-17T08:19:58;16.59;86.17
70421;SHT31;57848;51.938;15.520;2022-10-17T08:22:24;16.74;85.90
70421;SHT31;57848;51.938;15.520;2022-10-17T08:24:49;16.74;85.64
70421;SHT31;57848;51.938;15.520;2022-10-17T08:27:14;16.77;85.37
70421;SHT31;57848;51.938;15.520;2022-10-17T08:29:45;16.85;85.35
70421;SHT31;57848;51.938;15.520;2022-10-17T08:32:13;16.87;84.71
70421;SHT31;57848;51.938;15.520;2022-10-17T08:34:38;16.94;84.84
70421;SHT31;57848;51.938;15.520;2022-10-17T08:37:03;17.01;84.50
70421;SHT31;57848;51.938;15.520;2022-10-17T08:39:28;17.07;84.45
70421;SHT31;57848;51.938;15.520;2022-10-17T08:45:31;17.19;84.14
70421;SHT31;57848;51.938;15.520;2022-10-17T08:48:00;17.32;83.86
70421;SHT31;57848;51.938;15.520;2022-10-17T08:55:51;17.49;83.35
70421;SHT31;57848;51.938;15.520;2022-10-17T08:58:31;17.69;82.78
70421;SHT31;57848;51.938;15.520;2022-10-17T09:01:35;17.86;82.26
70421;SHT31;57848;51.938;15.520;2022-10-17T09:12:33;18.38;80.22
70421;SHT31;57848;51.938;15.520;2022-10-17T09:18:10;19.03;78.44
70421;SHT31;57848;51.938;15.520;2022-10-17T09:20:43;19.17;77.61
70421;SHT31;57848;51.938;15.520;2022-10-17T09:23:16;19.23;77.80
70421;SHT31;57848;51.938;15.520;2022-10-17T09:25:44;19.34;77.41
70421;SHT31;57848;51.938;15.520;2022-10-17T09:31:01;19.68;76.20
70421;SHT31;57848;51.938;15.520;2022-10-17T09:33:36;19.67;75.85
70421;SHT31;57848;51.938;15.520;2022-10-17T09:38:49;19.86;75.47
70421;SHT31;57848;51.938;15.520;2022-10-17T09:41:19;19.96;75.27
70421;SHT31;57848;51.938;15.520;2022-10-17T09:43:45;20.16;74.20
70421;SHT31;57848;51.938;15.520;2022-10-17T09:46:25;20.47;74.01
70421;SHT31;57848;51.938;15.520;2022-10-17T09:48:57;21.48;71.53
70421;SHT31;57848;51.938;15.520;2022-10-17T09:51:26;23.09;66.71
70421;SHT31;57848;51.938;15.520;2022-10-17T09:54:00;23.85;62.72
70421;SHT31;57848;51.938;15.520;2022-10-17T09:56:26;24.28;61.43
70421;SHT31;57848;51.938;15.520;2022-10-17T09:58:55;24.58;60.48
70421;SHT31;57848;51.938;15.520;2022-10-17T10:01:23;24.75;60.36
70421;SHT31;57848;51.938;15.520;2022-10-17T10:04:13;25.00;58.57
70421;SHT31;57848;51.938;15.520;2022-10-17T10:06:39;24.82;58.72
70421;SHT31;57848;51.938;15.520;2022-10-17T10:09:06;24.73;59.67
70421;SHT31;57848;51.938;15.520;2022-10-17T10:11:53;24.69;59.13
70421;SHT31;57848;51.938;15.520;2022-10-17T10:14:28;25.04;58.76
70421;SHT31;57848;51.938;15.520;2022-10-17T10:16:54;25.18;58.50
70421;SHT31;57848;51.938;15.520;2022-10-17T10:19:34;24.91;59.35
70421;SHT31;57848;51.938;15.520;2022-10-17T10:22:02;24.62;60.04
70421;SHT31;57848;51.938;15.520;2022-10-17T10:24:28;24.33;60.24
70421;SHT31;57848;51.938;15.520;2022-10-17T10:26:57;23.70;62.19
70421;SHT31;57848;51.938;15.520;2022-10-17T10:29:32;23.53;62.62
70421;SHT31;57848;51.938;15.520;2022-10-17T10:32:08;23.32;62.30
70421;SHT31;57848;51.938;15.520;2022-10-17T10:34:35;23.11;63.53
70421;SHT31;57848;51.938;15.520;2022-10-17T10:37:04;22.87;63.75
70421;SHT31;57848;51.938;15.520;2022-10-17T10:39:44;22.75;64.02
70421;SHT31;57848;51.938;15.520;2022-10-17T10:42:35;23.90;60.90
70421;SHT31;57848;51.938;15.520;2022-10-17T10:45:12;25.78;57.16
70421;SHT31;57848;51.938;15.520;2022-10-17T10:47:49;27.19;51.77
70421;SHT31;57848;51.938;15.520;2022-10-17T10:50:44;27.96;48.86
70421;SHT31;57848;51.938;15.520;2022-10-17T10:56:25;26.40;52.03
70421;SHT31;57848;51.938;15.520;2022-10-17T10:59:05;26.60;51.99
70421;SHT31;57848;51.938;15.520;2022-10-17T11:01:50;26.02;53.36
70421;SHT31;57848;51.938;15.520;2022-10-17T11:04:41;26.91;51.58
70421;SHT31;57848;51.938;15.520;2022-10-17T11:07:19;27.47;51.02
70421;SHT31;57848;51.938;15.520;2022-10-17T11:09:53;27.90;49.72
70421;SHT31;57848;51.938;15.520;2022-10-17T11:12:25;28.45;48.26
70421;SHT31;57848;51.938;15.520;2022-10-17T11:14:54;29.19;47.21
70421;SHT31;57848;51.938;15.520;2022-10-17T11:17:42;29.42;46.30
70421;SHT31;57848;51.938;15.520;2022-10-17T11:20:20;29.53;46.62
70421;SHT31;57848;51.938;15.520;2022-10-17T11:22:53;29.92;45.30
70421;SHT31;57848;51.938;15.520;2022-10-17T11:25:36;29.51;45.76
70421;SHT31;57848;51.938;15.520;2022-10-17T11:28:07;28.83;47.30
70421;SHT31;57848;51.938;15.520;2022-10-17T11:30:51;29.46;46.06
70421;SHT31;57848;51.938;15.520;2022-10-17T11:33:26;29.58;45.84
70421;SHT31;57848;51.938;15.520;2022-10-17T11:35:58;29.16;46.48
70421;SHT31;57848;51.938;15.520;2022-10-17T11:38:51;29.49;46.03
70421;SHT31;57848;51.938;15.520;2022-10-17T11:43:56;29.94;45.51
70421;SHT31;57848;51.938;15.520;2022-10-17T11:46:26;30.62;44.66
70421;SHT31;57848;51.938;15.520;2022-10-17T11:49:09;31.02;43.16
70421;SHT31;57848;51.938;15.520;2022-10-17T11:51:44;30.11;44.52
70421;SHT31;57848;51.938;15.520;2022-10-17T11:54:16;28.58;46.70
70421;SHT31;57848;51.938;15.520;2022-10-17T11:56:52;27.94;48.97
70421;SHT31;57848;51.938;15.520;2022-10-17T11:59:43;26.99;51.06
70421;SHT31;57848;51.938;15.520;2022-10-17T12:02:20;27.28;49.85
70421;SHT31;57848;51.938;15.520;2022-10-17T12:07:44;28.08;48.98
70421;SHT31;57848;51.938;15.520;2022-10-17T12:10:57;28.28;49.00
70421;SHT31;57848;51.938;15.520;2022-10-17T12:15:54;28.20;48.95
70421;SHT31;57848;51.938;15.520;2022-10-17T12:18:23;27.74;49.66
70421;SHT31;57848;51.938;15.520;2022-10-17T12:20:56;27.01;50.56
70421;SHT31;57848;51.938;15.520;2022-10-17T12:23:25;26.48;52.14
70421;SHT31;57848;51.938;15.520;2022-10-17T12:25:54;26.15;53.54
70421;SHT31;57848;51.938;15.520;2022-10-17T12:28:52;25.82;53.18
70421;SHT31;57848;51.938;15.520;2022-10-17T12:33:47;25.28;54.50
70421;SHT31;57848;51.938;15.520;2022-10-17T12:49:49;24.48;57.25
70421;SHT31;57848;51.938;15.520;2022-10-17T12:55:10;24.41;57.65
70421;SHT31;57848;51.938;15.520;2022-10-17T12:57:39;24.52;57.35
70421;SHT31;57848;51.938;15.520;2022-10-17T13:00:18;24.52;56.59
70421;SHT31;57848;51.938;15.520;2022-10-17T13:02:45;24.49;57.13
70421;SHT31;57848;51.938;15.520;2022-10-17T13:05:15;24.49;57.23
70421;SHT31;57848;51.938;15.520;2022-10-17T13:07:44;24.39;56.84
70421;SHT31;57848;51.938;15.520;2022-10-17T13:10:21;24.36;57.17
70421;SHT31;57848;51.938;15.520;2022-10-17T13:12:48;24.25;57.54
70421;SHT31;57848;51.938;15.520;2022-10-17T13:15:17;24.21;57.71
70421;SHT31;57848;51.938;15.520;2022-10-17T13:17:43;24.22;57.75
70421;SHT31;57848;51.938;15.520;2022-10-17T13:20:23;24.39;57.07
70421;SHT31;57848;51.938;15.520;2022-10-17T13:22:50;24.36;57.62
70421;SHT31;57848;51.938;15.520;2022-10-17T13:25:19;24.28;57.77
70421;SHT31;57848;51.938;15.520;2022-10-17T13:27:45;24.19;57.67
70421;SHT31;57848;51.938;15.520;2022-10-17T13:30:33;24.14;58.02
70421;SHT31;57848;51.938;15.520;2022-10-17T13:33:00;24.14;58.33
70421;SHT31;57848;51.938;15.520;2022-10-17T13:35:29;24.17;57.96
70421;SHT31;57848;51.938;15.520;2022-10-17T13:37:56;24.04;57.85
70421;SHT31;57848;51.938;15.520;2022-10-17T13:40:26;23.94;58.16
70421;SHT31;57848;51.938;15.520;2022-10-17T13:42:54;23.82;57.68
70421;SHT31;57848;51.938;15.520;2022-10-17T13:45:29;23.81;58.37
70421;SHT31;57848;51.938;15.520;2022-10-17T13:47:56;23.88;57.46
70421;SHT31;57848;51.938;15.520;2022-10-17T13:50:30;23.85;56.84
70421;SHT31;57848;51.938;15.520;2022-10-17T13:53:16;23.97;57.11
70421;SHT31;57848;51.938;15.520;2022-10-17T13:56:03;23.93;56.74
70421;SHT31;57848;51.938;15.520;2022-10-17T13:58:44;23.81;58.34
70421;SHT31;57848;51.938;15.520;2022-10-17T14:01:11;23.78;57.72
70421;SHT31;57848;51.938;15.520;2022-10-17T14:03:36;23.81;56.85
70421;SHT31;57848;51.938;15.520;2022-10-17T14:08:32;23.74;56.60
70421;SHT31;57848;51.938;15.520;2022-10-17T14:10:59;23.64;57.31
70421;SHT31;57848;51.938;15.520;2022-10-17T14:13:27;23.70;56.74
70421;SHT31;57848;51.938;15.520;2022-10-17T14:15:56;23.70;57.05
70421;SHT31;57848;51.938;15.520;2022-10-17T14:18:26;23.63;57.15
70421;SHT31;57848;51.938;15.520;2022-10-17T14:20:52;23.60;57.34
70421;SHT31;57848;51.938;15.520;2022-10-17T14:23:39;23.49;57.34
70421;SHT31;57848;51.938;15.520;2022-10-17T14:26:11;23.50;57.27
70421;SHT31;57848;51.938;15.520;2022-10-17T14:28:37;23.40;57.88
70421;SHT31;57848;51.938;15.520;2022-10-17T14:31:17;23.34;58.11
70421;SHT31;57848;51.938;15.520;2022-10-17T14:33:45;23.26;58.43
70421;SHT31;57848;51.938;15.520;2022-10-17T14:36:10;23.20;58.46
70421;SHT31;57848;51.938;15.520;2022-10-17T14:38:36;23.19;58.31
70421;SHT31;57848;51.938;15.520;2022-10-17T14:41:08;23.09;59.13
70421;SHT31;57848;51.938;15.520;2022-10-17T14:43:37;23.09;59.27
70421;SHT31;57848;51.938;15.520;2022-10-17T14:46:03;23.08;59.23
70421;SHT31;57848;51.938;15.520;2022-10-17T14:48:29;23.08;59.38
70421;SHT31;57848;51.938;15.520;2022-10-17T14:51:17;22.91;60.32
70421;SHT31;57848;51.938;15.520;2022-10-17T14:53:43;22.84;60.48
70421;SHT31;57848;51.938;15.520;2022-10-17T14:56:25;22.78;60.87
70421;SHT31;57848;51.938;15.520;2022-10-17T14:58:51;22.74;61.12
70421;SHT31;57848;51.938;15.520;2022-10-17T15:01:17;22.68;61.43
70421;SHT31;57848;51.938;15.520;2022-10-17T15:03:42;22.52;62.34
70421;SHT31;57848;51.938;15.520;2022-10-17T15:06:19;22.45;62.41
70421;SHT31;57848;51.938;15.520;2022-10-17T15:08:45;22.27;63.39
70421;SHT31;57848;51.938;15.520;2022-10-17T15:11:10;22.24;63.38
70421;SHT31;57848;51.938;15.520;2022-10-17T15:13:36;22.13;63.90
70421;SHT31;57848;51.938;15.520;2022-10-17T15:16:01;22.12;63.40
70421;SHT31;57848;51.938;15.520;2022-10-17T15:18:26;22.09;63.70
70421;SHT31;57848;51.938;15.520;2022-10-17T15:20:51;22.17;63.44
70421;SHT31;57848;51.938;15.520;2022-10-17T15:23:17;22.07;63.79
70421;SHT31;57848;51.938;15.520;2022-10-17T15:25:42;21.97;63.63
70421;SHT31;57848;51.938;15.520;2022-10-17T15:28:10;21.94;63.47
70421;SHT31;57848;51.938;15.520;2022-10-17T15:30:37;21.89;63.87
70421;SHT31;57848;51.938;15.520;2022-10-17T15:33:02;21.79;64.57
70421;SHT31;57848;51.938;15.520;2022-10-17T15:35:28;21.72;65.24
70421;SHT31;57848;51.938;15.520;2022-10-17T15:37:53;21.71;65.49
70421;SHT31;57848;51.938;15.520;2022-10-17T15:40:24;21.71;64.92
70421;SHT31;57848;51.938;15.520;2022-10-17T15:42:50;21.61;65.78
70421;SHT31;57848;51.938;15.520;2022-10-17T15:45:17;21.61;65.92
70421;SHT31;57848;51.938;15.520;2022-10-17T15:47:50;21.49;66.17
70421;SHT31;57848;51.938;15.520;2022-10-17T15:50:16;21.42;66.68
70421;SHT31;57848;51.938;15.520;2022-10-17T15:52:42;21.38;66.23
70421;SHT31;57848;51.938;15.520;2022-10-17T15:55:08;21.25;66.63
70421;SHT31;57848;51.938;15.520;2022-10-17T15:57:37;21.20;66.87
70421;SHT31;57848;51.938;15.520;2022-10-17T16:00:13;21.18;67.09
70421;SHT31;57848;51.938;15.520;2022-10-17T16:02:39;21.23;67.14
70421;SHT31;57848;51.938;15.520;2022-10-17T16:05:14;21.11;67.56
70421;SHT31;57848;51.938;15.520;2022-10-17T16:07:41;20.95;68.19
70421;SHT31;57848;51.938;15.520;2022-10-17T16:10:06;20.87;68.44
70421;SHT31;57848;51.938;15.520;2022-10-17T16:12:34;20.80;68.53
70421;SHT31;57848;51.938;15.520;2022-10-17T16:15:06;20.73;68.78
70421;SHT31;57848;51.938;15.520;2022-10-17T16:17:33;20.60;69.72
70421;SHT31;57848;51.938;15.520;2022-10-17T16:19:58;20.45;70.51
70421;SHT31;57848;51.938;15.520;2022-10-17T16:22:27;20.33;70.84
70421;SHT31;57848;51.938;15.520;2022-10-17T16:24:56;20.26;70.70
70421;SHT31;57848;51.938;15.520;2022-10-17T16:27:23;20.28;70.45
70421;SHT31;57848;51.938;15.520;2022-10-17T16:29:49;20.24;70.71
70421;SHT31;57848;51.938;15.520;2022-10-17T16:32:14;20.19;70.96
70421;SHT31;57848;51.938;15.520;2022-10-17T16:34:39;20.15;70.83
70421;SHT31;57848;51.938;15.520;2022-10-17T16:37:05;20.14;70.80
70421;SHT31;57848;51.938;15.520;2022-10-17T16:39:30;20.21;70.29
70421;SHT31;57848;51.938;15.520;2022-10-17T16:41:55;20.11;71.03
70421;SHT31;57848;51.938;15.520;2022-10-17T16:44:20;20.18;70.69
70421;SHT31;57848;51.938;15.520;2022-10-17T16:46:46;20.16;70.64